sensor_id;sensor_type;location;lat;lon;timestamp;P1;durP1;ratioP1;P2;durP2;ratioP2
24681;SDS011;12802;53.390;-2.328;2023-08-01T00:00:06;15.00;;;3.20;;
24681;SDS011;12802;53.390;-2.328;2023-08-01T00:02:39;17.02;;;3.67;;
24681;SDS011;12802;53.390;-2.328;2023-08-01T00:05:08;14.85;;;3.58;;
24681;SDS011;12802;53.390;-2.328;2023-08-01T00:07:34;18.33;;;3.80;;
24681;SDS011;12802;53.390;-2.328;2023-08-01T00:10:00;15.90;;;4.20;;
24681;SDS011;12802;53.390;-2.328;2023-08-01T00:12:26;17.08;;;3.92;;
24681;SDS011;12802;53.390;-2.328;2023-08-01T00:14:52;19.75;;;4.10;;
24681;SDS011;12802;53.390;-2.328;2023-08-01T00:17:19;12.48;;;3.50;;
24681;SDS011;12802;53.390;-2.328;2023-08-01T00:19:46;16.25;;;3.65;;
24681;SDS011;12802;53.390;-2.328;2023-08-01T00:22:12;15.52;;;3.97;;
24681;SDS011;12802;53.390;-2.328;2023-08-01T00:24:38;14.13;;;3.53;;
24681;SDS011;12802;53.390;-2.328;2023-08-01T00:27:04;15.80;;;3.60;;
24681;SDS011;12802;53.390;-2.328;2023-08-01T00:29:33;16.15;;;3.70;;
24681;SDS011;12802;53.390;-2.328;2023-08-01T00:31:59;11.35;;;3.47;;
24681;SDS011;12802;53.390;-2.328;2023-08-01T00:34:25;16.95;;;3.63;;
24681;SDS011;12802;53.390;-2.328;2023-08-01T00:36:51;13.32;;;3.78;;
24681;SDS011;12802;53.390;-2.328;2023-08-01T00:39:18;17.73;;;3.80;;
24681;SDS011;12802;53.390;-2.328;2023-08-01T00:41:44;17.23;;;3.65;;
24681;SDS011;12802;53.390;-2.328;2023-08-01T00:44:10;22.02;;;3.75;;
24681;SDS011;12802;53.390;-2.328;2023-08-01T00:46:36;16.17;;;4.28;;
24681;SDS011;12802;53.390;-2.328;2023-08-01T00:49:02;18.17;;;3.88;;
24681;SDS011;12802;53.390;-2.328;2023-08-01T00:51:28;18.77;;;3.92;;
24681;SDS011;12802;53.390;-2.328;2023-08-01T00:53:55;17.58;;;3.72;;
24681;SDS011;12802;53.390;-2.328;2023-08-01T00:56:21;19.20;;;3.72;;
24681;SDS011;12802;53.390;-2.328;2023-08-01T00:58:47;12.23;;;3.13;;
24681;SDS011;12802;53.390;-2.328;2023-08-01T01:01:13;15.35;;;3.92;;
24681;SDS011;12802;53.390;-2.328;2023-08-01T01:03:39;16.17;;;4.05;;
24681;SDS011;12802;53.390;-2.328;2023-08-01T01:06:12;21.75;;;3.60;;
24681;SDS011;12802;53.390;-2.328;2023-08-01T01:08:43;14.32;;;3.22;;
24681;SDS011;12802;53.390;-2.328;2023-08-01T01:11:09;14.27;;;3.63;;
24681;SDS011;12802;53.390;-2.328;2023-08-01T01:13:35;21.95;;;3.72;;
24681;SDS011;12802;53.390;-2.328;2023-08-01T01:16:01;13.55;;;3.95;;
24681;SDS011;12802;53.390;-2.328;2023-08-01T01:18:28;14.25;;;3.65;;
24681;SDS011;12802;53.390;-2.328;2023-08-01T01:20:54;19.05;;;4.18;;
24681;SDS011;12802;53.390;-2.328;2023-08-01T01:23:20;19.10;;;3.67;;
24681;SDS011;12802;53.390;-2.328;2023-08-01T01:25:48;16.02;;;3.67;;
24681;SDS011;12802;53.390;-2.328;2023-08-01T01:28:15;17.67;;;4.07;;
24681;SDS011;12802;53.390;-2.328;2023-08-01T01:30:41;22.30;;;4.55;;
24681;SDS011;12802;53.390;-2.328;2023-08-01T01:33:08;15.52;;;4.30;;
24681;SDS011;12802;53.390;-2.328;2023-08-01T01:35:34;21.85;;;4.00;;
24681;SDS011;12802;53.390;-2.328;2023-08-01T01:38:01;23.10;;;4.80;;
24681;SDS011;12802;53.390;-2.328;2023-08-01T01:40:32;19.88;;;4.55;;
24681;SDS011;12802;53.390;-2.328;2023-08-01T01:45:24;20.15;;;4.63;;
24681;SDS011;12802;53.390;-2.328;2023-08-01T01:47:50;19.75;;;4.40;;
24681;SDS011;12802;53.390;-2.328;2023-08-01T01:50:16;19.45;;;4.70;;
24681;SDS011;12802;53.390;-2.328;2023-08-01T01:52:43;18.70;;;4.60;;
24681;SDS011;12802;53.390;-2.328;2023-08-01T01:55:09;22.02;;;4.40;;
24681;SDS011;12802;53.390;-2.328;2023-08-01T01:57:36;14.80;;;3.95;;
24681;SDS011;12802;53.390;-2.328;2023-08-01T02:00:06;17.55;;;3.85;;
24681;SDS011;12802;53.390;-2.328;2023-08-01T02:02:38;17.15;;;4.70;;
24681;SDS011;12802;53.390;-2.328;2023-08-01T02:05:04;27.25;;;4.57;;
24681;SDS011;12802;53.390;-2.328;2023-08-01T02:07:30;26.55;;;4.40;;
24681;SDS011;12802;53.390;-2.328;2023-08-01T02:09:59;14.02;;;4.18;;
24681;SDS011;12802;53.390;-2.328;2023-08-01T02:12:25;25.67;;;4.90;;
24681;SDS011;12802;53.390;-2.328;2023-08-01T02:14:51;23.70;;;4.45;;
24681;SDS011;12802;53.390;-2.328;2023-08-01T02:17:17;20.40;;;4.78;;
24681;SDS011;12802;53.390;-2.328;2023-08-01T02:19:43;20.90;;;4.70;;
24681;SDS011;12802;53.390;-2.328;2023-08-01T02:22:09;22.20;;;4.90;;
24681;SDS011;12802;53.390;-2.328;2023-08-01T02:24:36;17.17;;;4.43;;
24681;SDS011;12802;53.390;-2.328;2023-08-01T02:27:02;21.70;;;5.00;;
24681;SDS011;12802;53.390;-2.328;2023-08-01T02:29:28;13.50;;;4.03;;
24681;SDS011;12802;53.390;-2.328;2023-08-01T02:31:54;19.17;;;4.40;;
24681;SDS011;12802;53.390;-2.328;2023-08-01T02:34:21;18.13;;;3.88;;
24681;SDS011;12802;53.390;-2.328;2023-08-01T02:36:47;19.48;;;4.32;;
24681;SDS011;12802;53.390;-2.328;2023-08-01T02:39:13;23.00;;;4.47;;
24681;SDS011;12802;53.390;-2.328;2023-08-01T02:41:39;21.48;;;5.15;;
24681;SDS011;12802;53.390;-2.328;2023-08-01T02:44:05;20.25;;;4.50;;
24681;SDS011;12802;53.390;-2.328;2023-08-01T02:46:31;24.73;;;4.60;;
24681;SDS011;12802;53.390;-2.328;2023-08-01T02:48:57;18.38;;;4.68;;
24681;SDS011;12802;53.390;-2.328;2023-08-01T02:51:23;27.02;;;4.53;;
24681;SDS011;12802;53.390;-2.328;2023-08-01T02:53:50;21.17;;;4.65;;
24681;SDS011;12802;53.390;-2.328;2023-08-01T02:56:16;18.88;;;4.80;;
24681;SDS011;12802;53.390;-2.328;2023-08-01T02:58:42;20.27;;;4.88;;
24681;SDS011;12802;53.390;-2.328;2023-08-01T03:01:08;16.52;;;4.30;;
24681;SDS011;12802;53.390;-2.328;2023-08-01T03:03:35;18.58;;;4.53;;
24681;SDS011;12802;53.390;-2.328;2023-08-01T03:06:02;14.73;;;5.05;;
24681;SDS011;12802;53.390;-2.328;2023-08-01T03:08:28;23.25;;;4.70;;
24681;SDS011;12802;53.390;-2.328;2023-08-01T03:10:55;21.52;;;4.32;;
24681;SDS011;12802;53.390;-2.328;2023-08-01T03:13:21;16.95;;;4.15;;
24681;SDS011;12802;53.390;-2.328;2023-08-01T03:15:47;20.70;;;4.75;;
24681;SDS011;12802;53.390;-2.328;2023-08-01T03:18:13;18.83;;;4.85;;
24681;SDS011;12802;53.390;-2.328;2023-08-01T03:20:39;19.77;;;4.57;;
24681;SDS011;12802;53.390;-2.328;2023-08-01T03:23:06;21.85;;;4.60;;
24681;SDS011;12802;53.390;-2.328;2023-08-01T03:25:32;26.13;;;5.13;;
24681;SDS011;12802;53.390;-2.328;2023-08-01T03:27:58;17.60;;;4.40;;
24681;SDS011;12802;53.390;-2.328;2023-08-01T03:30:24;24.92;;;5.38;;
24681;SDS011;12802;53.390;-2.328;2023-08-01T03:32:52;20.10;;;4.57;;
24681;SDS011;12802;53.390;-2.328;2023-08-01T03:35:19;21.80;;;4.30;;
24681;SDS011;12802;53.390;-2.328;2023-08-01T03:37:45;17.35;;;4.53;;
24681;SDS011;12802;53.390;-2.328;2023-08-01T03:40:11;17.92;;;4.68;;
24681;SDS011;12802;53.390;-2.328;2023-08-01T03:42:37;17.38;;;4.38;;
24681;SDS011;12802;53.390;-2.328;2023-08-01T03:45:03;15.85;;;4.80;;
24681;SDS011;12802;53.390;-2.328;2023-08-01T03:47:30;15.23;;;5.18;;
24681;SDS011;12802;53.390;-2.328;2023-08-01T03:49:57;23.40;;;4.97;;
24681;SDS011;12802;53.390;-2.328;2023-08-01T03:52:23;20.48;;;4.93;;
24681;SDS011;12802;53.390;-2.328;2023-08-01T03:54:49;18.98;;;4.68;;
24681;SDS011;12802;53.390;-2.328;2023-08-01T03:57:15;14.70;;;5.18;;
24681;SDS011;12802;53.390;-2.328;2023-08-01T03:59:41;18.13;;;4.68;;
24681;SDS011;12802;53.390;-2.328;2023-08-01T04:02:08;17.52;;;4.63;;
24681;SDS011;12802;53.390;-2.328;2023-08-01T04:04:34;20.33;;;5.05;;
24681;SDS011;12802;53.390;-2.328;2023-08-01T04:07:01;21.13;;;5.18;;
24681;SDS011;12802;53.390;-2.328;2023-08-01T04:09:27;23.05;;;4.63;;
24681;SDS011;12802;53.390;-2.328;2023-08-01T04:11:53;16.90;;;4.63;;
24681;SDS011;12802;53.390;-2.328;2023-08-01T04:14:19;23.33;;;5.07;;
24681;SDS011;12802;53.390;-2.328;2023-08-01T04:16:45;21.40;;;5.00;;
24681;SDS011;12802;53.390;-2.328;2023-08-01T04:19:11;23.52;;;4.65;;
24681;SDS011;12802;53.390;-2.328;2023-08-01T04:21:38;22.15;;;5.25;;
24681;SDS011;12802;53.390;-2.328;2023-08-01T04:24:04;21.10;;;5.18;;
24681;SDS011;12802;53.390;-2.328;2023-08-01T04:26:30;24.98;;;5.30;;
24681;SDS011;12802;53.390;-2.328;2023-08-01T04:28:56;18.55;;;4.93;;
24681;SDS011;12802;53.390;-2.328;2023-08-01T04:31:22;19.92;;;5.47;;
24681;SDS011;12802;53.390;-2.328;2023-08-01T04:33:48;22.98;;;5.53;;
24681;SDS011;12802;53.390;-2.328;2023-08-01T04:36:15;20.17;;;5.60;;
24681;SDS011;12802;53.390;-2.328;2023-08-01T04:38:41;23.23;;;5.85;;
24681;SDS011;12802;53.390;-2.328;2023-08-01T04:41:07;19.67;;;5.05;;
24681;SDS011;12802;53.390;-2.328;2023-08-01T04:43:33;21.70;;;5.25;;
24681;SDS011;12802;53.390;-2.328;2023-08-01T04:45:59;22.70;;;5.70;;
24681;SDS011;12802;53.390;-2.328;2023-08-01T04:48:25;25.45;;;5.43;;
24681;SDS011;12802;53.390;-2.328;2023-08-01T04:50:51;17.45;;;4.57;;
24681;SDS011;12802;53.390;-2.328;2023-08-01T04:53:17;18.55;;;4.55;;
24681;SDS011;12802;53.390;-2.328;2023-08-01T04:55:43;17.20;;;4.78;;
24681;SDS011;12802;53.390;-2.328;2023-08-01T04:58:09;21.70;;;5.03;;
24681;SDS011;12802;53.390;-2.328;2023-08-01T05:00:36;22.35;;;4.68;;
24681;SDS011;12802;53.390;-2.328;2023-08-01T05:03:03;31.10;;;5.72;;
24681;SDS011;12802;53.390;-2.328;2023-08-01T05:05:29;19.30;;;4.82;;
24681;SDS011;12802;53.390;-2.328;2023-08-01T05:07:55;17.88;;;4.82;;
24681;SDS011;12802;53.390;-2.328;2023-08-01T05:10:21;18.08;;;4.93;;
24681;SDS011;12802;53.390;-2.328;2023-08-01T05:12:47;24.00;;;5.65;;
24681;SDS011;12802;53.390;-2.328;2023-08-01T05:15:13;17.77;;;5.22;;
24681;SDS011;12802;53.390;-2.328;2023-08-01T05:17:39;21.58;;;6.28;;
24681;SDS011;12802;53.390;-2.328;2023-08-01T05:20:05;28.48;;;6.70;;
24681;SDS011;12802;53.390;-2.328;2023-08-01T05:22:32;23.35;;;6.53;;
24681;SDS011;12802;53.390;-2.328;2023-08-01T05:24:58;16.90;;;5.55;;
24681;SDS011;12802;53.390;-2.328;2023-08-01T05:27:24;34.10;;;6.78;;
24681;SDS011;12802;53.390;-2.328;2023-08-01T05:29:50;17.63;;;5.53;;
24681;SDS011;12802;53.390;-2.328;2023-08-01T05:32:16;20.73;;;5.40;;
24681;SDS011;12802;53.390;-2.328;2023-08-01T05:34:42;22.88;;;6.18;;
24681;SDS011;12802;53.390;-2.328;2023-08-01T05:37:08;20.25;;;5.57;;
24681;SDS011;12802;53.390;-2.328;2023-08-01T05:39:34;20.70;;;5.65;;
24681;SDS011;12802;53.390;-2.328;2023-08-01T05:42:00;26.33;;;5.97;;
24681;SDS011;12802;53.390;-2.328;2023-08-01T05:44:26;18.98;;;5.22;;
24681;SDS011;12802;53.390;-2.328;2023-08-01T05:46:53;26.42;;;5.55;;
24681;SDS011;12802;53.390;-2.328;2023-08-01T05:49:19;25.98;;;5.90;;
24681;SDS011;12802;53.390;-2.328;2023-08-01T05:51:45;17.90;;;5.00;;
24681;SDS011;12802;53.390;-2.328;2023-08-01T05:54:11;25.25;;;6.22;;
24681;SDS011;12802;53.390;-2.328;2023-08-01T05:56:38;18.20;;;5.10;;
24681;SDS011;12802;53.390;-2.328;2023-08-01T05:59:04;21.83;;;5.78;;
24681;SDS011;12802;53.390;-2.328;2023-08-01T06:01:30;22.38;;;5.15;;
24681;SDS011;12802;53.390;-2.328;2023-08-01T06:03:56;20.25;;;5.05;;
24681;SDS011;12802;53.390;-2.328;2023-08-01T06:06:22;25.75;;;5.20;;
24681;SDS011;12802;53.390;-2.328;2023-08-01T06:08:48;20.15;;;5.45;;
24681;SDS011;12802;53.390;-2.328;2023-08-01T06:11:16;28.08;;;5.38;;
24681;SDS011;12802;53.390;-2.328;2023-08-01T06:13:42;20.77;;;5.45;;
24681;SDS011;12802;53.390;-2.328;2023-08-01T06:16:08;24.15;;;5.60;;
24681;SDS011;12802;53.390;-2.328;2023-08-01T06:18:36;23.10;;;6.05;;
24681;SDS011;12802;53.390;-2.328;2023-08-01T06:21:02;26.45;;;5.70;;
24681;SDS011;12802;53.390;-2.328;2023-08-01T06:23:28;23.75;;;4.80;;
24681;SDS011;12802;53.390;-2.328;2023-08-01T06:25:54;26.08;;;4.63;;
24681;SDS011;12802;53.390;-2.328;2023-08-01T06:28:20;26.88;;;5.63;;
24681;SDS011;12802;53.390;-2.328;2023-08-01T06:30:46;26.95;;;5.28;;
24681;SDS011;12802;53.390;-2.328;2023-08-01T06:33:12;23.33;;;5.25;;
24681;SDS011;12802;53.390;-2.328;2023-08-01T06:35:38;23.40;;;5.15;;
24681;SDS011;12802;53.390;-2.328;2023-08-01T06:38:04;25.10;;;5.10;;
24681;SDS011;12802;53.390;-2.328;2023-08-01T06:40:30;17.35;;;5.78;;
24681;SDS011;12802;53.390;-2.328;2023-08-01T06:42:57;32.90;;;6.32;;
24681;SDS011;12802;53.390;-2.328;2023-08-01T06:45:23;20.95;;;5.20;;
24681;SDS011;12802;53.390;-2.328;2023-08-01T06:47:49;21.63;;;5.35;;
24681;SDS011;12802;53.390;-2.328;2023-08-01T06:50:15;21.45;;;5.28;;
24681;SDS011;12802;53.390;-2.328;2023-08-01T06:52:41;20.77;;;5.40;;
24681;SDS011;12802;53.390;-2.328;2023-08-01T06:55:07;18.23;;;5.30;;
24681;SDS011;12802;53.390;-2.328;2023-08-01T06:57:33;24.58;;;5.07;;
24681;SDS011;12802;53.390;-2.328;2023-08-01T06:59:59;20.77;;;4.32;;
24681;SDS011;12802;53.390;-2.328;2023-08-01T07:02:25;30.73;;;5.28;;
24681;SDS011;12802;53.390;-2.328;2023-08-01T07:04:52;18.23;;;5.07;;
24681;SDS011;12802;53.390;-2.328;2023-08-01T07:07:18;25.40;;;5.43;;
24681;SDS011;12802;53.390;-2.328;2023-08-01T07:09:44;19.85;;;5.07;;
24681;SDS011;12802;53.390;-2.328;2023-08-01T07:12:10;19.15;;;5.13;;
24681;SDS011;12802;53.390;-2.328;2023-08-01T07:14:36;28.95;;;5.00;;
24681;SDS011;12802;53.390;-2.328;2023-08-01T07:17:02;25.88;;;5.20;;
24681;SDS011;12802;53.390;-2.328;2023-08-01T07:19:29;21.27;;;4.45;;
24681;SDS011;12802;53.390;-2.328;2023-08-01T07:21:55;29.73;;;5.25;;
24681;SDS011;12802;53.390;-2.328;2023-08-01T07:24:21;24.67;;;5.75;;
24681;SDS011;12802;53.390;-2.328;2023-08-01T07:26:47;25.15;;;5.53;;
24681;SDS011;12802;53.390;-2.328;2023-08-01T07:29:13;20.77;;;5.38;;
24681;SDS011;12802;53.390;-2.328;2023-08-01T07:31:41;19.05;;;5.25;;
24681;SDS011;12802;53.390;-2.328;2023-08-01T07:34:08;20.88;;;5.25;;
24681;SDS011;12802;53.390;-2.328;2023-08-01T07:36:34;20.20;;;4.97;;
24681;SDS011;12802;53.390;-2.328;2023-08-01T07:39:00;15.50;;;4.07;;
24681;SDS011;12802;53.390;-2.328;2023-08-01T07:41:26;17.67;;;4.10;;
24681;SDS011;12802;53.390;-2.328;2023-08-01T07:43:52;18.25;;;4.30;;
24681;SDS011;12802;53.390;-2.328;2023-08-01T07:46:18;19.20;;;4.43;;
24681;SDS011;12802;53.390;-2.328;2023-08-01T07:48:44;17.52;;;3.78;;
24681;SDS011;12802;53.390;-2.328;2023-08-01T07:51:10;15.15;;;4.50;;
24681;SDS011;12802;53.390;-2.328;2023-08-01T07:53:37;20.60;;;4.85;;
24681;SDS011;12802;53.390;-2.328;2023-08-01T07:56:03;16.88;;;4.22;;
24681;SDS011;12802;53.390;-2.328;2023-08-01T07:58:31;17.17;;;4.10;;
24681;SDS011;12802;53.390;-2.328;2023-08-01T08:01:02;16.15;;;4.82;;
24681;SDS011;12802;53.390;-2.328;2023-08-01T08:03:28;15.18;;;4.22;;
24681;SDS011;12802;53.390;-2.328;2023-08-01T08:05:54;20.35;;;4.75;;
24681;SDS011;12802;53.390;-2.328;2023-08-01T08:08:20;18.17;;;4.60;;
24681;SDS011;12802;53.390;-2.328;2023-08-01T08:10:46;27.00;;;5.20;;
24681;SDS011;12802;53.390;-2.328;2023-08-01T08:13:12;21.90;;;4.30;;
24681;SDS011;12802;53.390;-2.328;2023-08-01T08:15:39;20.13;;;4.85;;
24681;SDS011;12802;53.390;-2.328;2023-08-01T08:18:05;14.88;;;4.28;;
24681;SDS011;12802;53.390;-2.328;2023-08-01T08:20:31;17.33;;;4.95;;
24681;SDS011;12802;53.390;-2.328;2023-08-01T08:22:57;18.40;;;4.60;;
24681;SDS011;12802;53.390;-2.328;2023-08-01T08:25:23;19.10;;;4.50;;
24681;SDS011;12802;53.390;-2.328;2023-08-01T08:27:49;16.65;;;4.95;;
24681;SDS011;12802;53.390;-2.328;2023-08-01T08:30:15;20.85;;;5.30;;
24681;SDS011;12802;53.390;-2.328;2023-08-01T08:32:42;25.55;;;5.07;;
24681;SDS011;12802;53.390;-2.328;2023-08-01T08:35:08;19.88;;;4.63;;
24681;SDS011;12802;53.390;-2.328;2023-08-01T08:37:34;18.67;;;4.28;;
24681;SDS011;12802;53.390;-2.328;2023-08-01T08:40:02;14.45;;;4.13;;
24681;SDS011;12802;53.390;-2.328;2023-08-01T08:42:28;18.35;;;4.20;;
24681;SDS011;12802;53.390;-2.328;2023-08-01T08:44:54;15.68;;;3.72;;
24681;SDS011;12802;53.390;-2.328;2023-08-01T08:47:25;14.07;;;3.92;;
24681;SDS011;12802;53.390;-2.328;2023-08-01T08:49:51;18.35;;;3.55;;
24681;SDS011;12802;53.390;-2.328;2023-08-01T08:52:18;16.38;;;3.13;;
24681;SDS011;12802;53.390;-2.328;2023-08-01T08:54:44;15.38;;;3.58;;
24681;SDS011;12802;53.390;-2.328;2023-08-01T08:57:11;16.65;;;3.10;;
24681;SDS011;12802;53.390;-2.328;2023-08-01T08:59:37;10.95;;;3.40;;
24681;SDS011;12802;53.390;-2.328;2023-08-01T09:02:04;13.55;;;2.95;;
24681;SDS011;12802;53.390;-2.328;2023-08-01T09:04:31;12.73;;;3.20;;
24681;SDS011;12802;53.390;-2.328;2023-08-01T09:07:01;14.23;;;3.67;;
24681;SDS011;12802;53.390;-2.328;2023-08-01T09:09:28;14.60;;;3.25;;
24681;SDS011;12802;53.390;-2.328;2023-08-01T09:11:54;10.88;;;2.83;;
24681;SDS011;12802;53.390;-2.328;2023-08-01T09:14:23;11.47;;;2.40;;
24681;SDS011;12802;53.390;-2.328;2023-08-01T09:16:49;20.73;;;3.45;;
24681;SDS011;12802;53.390;-2.328;2023-08-01T09:19:17;12.27;;;2.83;;
24681;SDS011;12802;53.390;-2.328;2023-08-01T09:21:43;15.35;;;2.50;;
24681;SDS011;12802;53.390;-2.328;2023-08-01T09:26:35;9.48;;;2.88;;
24681;SDS011;12802;53.390;-2.328;2023-08-01T09:29:01;12.80;;;3.05;;
24681;SDS011;12802;53.390;-2.328;2023-08-01T09:31:28;14.25;;;2.80;;
24681;SDS011;12802;53.390;-2.328;2023-08-01T09:33:55;15.13;;;3.25;;
24681;SDS011;12802;53.390;-2.328;2023-08-01T09:36:21;14.20;;;3.30;;
24681;SDS011;12802;53.390;-2.328;2023-08-01T09:38:48;14.20;;;3.05;;
24681;SDS011;12802;53.390;-2.328;2023-08-01T09:41:17;13.77;;;3.13;;
24681;SDS011;12802;53.390;-2.328;2023-08-01T09:43:44;12.43;;;2.65;;
24681;SDS011;12802;53.390;-2.328;2023-08-01T09:46:11;10.60;;;2.92;;
24681;SDS011;12802;53.390;-2.328;2023-08-01T09:48:37;14.35;;;3.10;;
24681;SDS011;12802;53.390;-2.328;2023-08-01T09:51:04;9.98;;;2.40;;
24681;SDS011;12802;53.390;-2.328;2023-08-01T09:53:31;10.15;;;2.63;;
24681;SDS011;12802;53.390;-2.328;2023-08-01T09:55:59;8.02;;;2.33;;
24681;SDS011;12802;53.390;-2.328;2023-08-01T09:58:26;9.50;;;2.22;;
24681;SDS011;12802;53.390;-2.328;2023-08-01T10:00:57;8.32;;;2.70;;
24681;SDS011;12802;53.390;-2.328;2023-08-01T10:03:25;9.90;;;2.65;;
24681;SDS011;12802;53.390;-2.328;2023-08-01T10:05:51;13.80;;;2.97;;
24681;SDS011;12802;53.390;-2.328;2023-08-01T10:08:19;11.48;;;2.60;;
24681;SDS011;12802;53.390;-2.328;2023-08-01T10:10:46;14.88;;;2.72;;
24681;SDS011;12802;53.390;-2.328;2023-08-01T10:13:13;11.65;;;2.97;;
24681;SDS011;12802;53.390;-2.328;2023-08-01T10:15:40;13.93;;;3.13;;
24681;SDS011;12802;53.390;-2.328;2023-08-01T10:18:08;11.60;;;2.33;;
24681;SDS011;12802;53.390;-2.328;2023-08-01T10:20:35;9.00;;;2.53;;
24681;SDS011;12802;53.390;-2.328;2023-08-01T10:23:02;11.50;;;2.63;;
24681;SDS011;12802;53.390;-2.328;2023-08-01T10:25:29;9.75;;;2.78;;
24681;SDS011;12802;53.390;-2.328;2023-08-01T10:28:02;11.65;;;2.55;;
24681;SDS011;12802;53.390;-2.328;2023-08-01T10:30:29;12.77;;;2.83;;
24681;SDS011;12802;53.390;-2.328;2023-08-01T10:32:55;11.25;;;3.15;;
24681;SDS011;12802;53.390;-2.328;2023-08-01T10:38:18;11.02;;;3.03;;
24681;SDS011;12802;53.390;-2.328;2023-08-01T10:40:44;7.05;;;2.03;;
24681;SDS011;12802;53.390;-2.328;2023-08-01T10:43:23;9.82;;;2.55;;
24681;SDS011;12802;53.390;-2.328;2023-08-01T10:46:00;10.30;;;2.35;;
24681;SDS011;12802;53.390;-2.328;2023-08-01T10:48:26;7.55;;;2.55;;
24681;SDS011;12802;53.390;-2.328;2023-08-01T10:50:56;11.90;;;2.65;;
24681;SDS011;12802;53.390;-2.328;2023-08-01T10:53:22;14.10;;;3.10;;
24681;SDS011;12802;53.390;-2.328;2023-08-01T10:55:49;8.38;;;2.35;;
24681;SDS011;12802;53.390;-2.328;2023-08-01T10:58:15;11.90;;;2.50;;
24681;SDS011;12802;53.390;-2.328;2023-08-01T11:00:41;9.75;;;2.70;;
24681;SDS011;12802;53.390;-2.328;2023-08-01T11:03:08;11.57;;;2.72;;
24681;SDS011;12802;53.390;-2.328;2023-08-01T11:05:34;10.15;;;2.35;;
24681;SDS011;12802;53.390;-2.328;2023-08-01T11:08:01;11.70;;;2.30;;
24681;SDS011;12802;53.390;-2.328;2023-08-01T11:10:31;8.68;;;2.58;;
24681;SDS011;12802;53.390;-2.328;2023-08-01T11:15:23;8.48;;;2.47;;
24681;SDS011;12802;53.390;-2.328;2023-08-01T11:17:51;12.35;;;2.47;;
24681;SDS011;12802;53.390;-2.328;2023-08-01T11:20:19;8.52;;;2.13;;
24681;SDS011;12802;53.390;-2.328;2023-08-01T11:22:50;10.23;;;2.42;;
24681;SDS011;12802;53.390;-2.328;2023-08-01T11:25:17;11.80;;;2.17;;
24681;SDS011;12802;53.390;-2.328;2023-08-01T11:27:43;10.23;;;2.28;;
24681;SDS011;12802;53.390;-2.328;2023-08-01T11:30:09;9.00;;;2.28;;
24681;SDS011;12802;53.390;-2.328;2023-08-01T11:32:36;9.55;;;2.33;;
24681;SDS011;12802;53.390;-2.328;2023-08-01T11:35:03;12.20;;;2.40;;
24681;SDS011;12802;53.390;-2.328;2023-08-01T11:37:29;9.02;;;2.63;;
24681;SDS011;12802;53.390;-2.328;2023-08-01T11:39:55;12.88;;;2.25;;
24681;SDS011;12802;53.390;-2.328;2023-08-01T11:42:22;7.70;;;1.98;;
24681;SDS011;12802;53.390;-2.328;2023-08-01T11:44:48;9.88;;;2.25;;
24681;SDS011;12802;53.390;-2.328;2023-08-01T11:47:15;7.97;;;2.20;;
24681;SDS011;12802;53.390;-2.328;2023-08-01T11:49:45;8.02;;;2.08;;
24681;SDS011;12802;53.390;-2.328;2023-08-01T11:52:21;6.50;;;1.73;;
24681;SDS011;12802;53.390;-2.328;2023-08-01T11:54:47;7.85;;;2.20;;
24681;SDS011;12802;53.390;-2.328;2023-08-01T11:57:14;8.95;;;2.20;;
24681;SDS011;12802;53.390;-2.328;2023-08-01T11:59:50;8.65;;;1.88;;
24681;SDS011;12802;53.390;-2.328;2023-08-01T12:02:26;5.70;;;1.75;;
24681;SDS011;12802;53.390;-2.328;2023-08-01T12:04:53;11.55;;;2.00;;
24681;SDS011;12802;53.390;-2.328;2023-08-01T12:07:20;7.00;;;2.15;;
24681;SDS011;12802;53.390;-2.328;2023-08-01T12:09:59;13.38;;;2.45;;
24681;SDS011;12802;53.390;-2.328;2023-08-01T12:12:26;9.20;;;1.98;;
24681;SDS011;12802;53.390;-2.328;2023-08-01T12:14:52;9.80;;;1.90;;
24681;SDS011;12802;53.390;-2.328;2023-08-01T12:17:19;5.90;;;1.60;;
24681;SDS011;12802;53.390;-2.328;2023-08-01T12:19:45;8.30;;;2.00;;
24681;SDS011;12802;53.390;-2.328;2023-08-01T12:22:12;4.55;;;1.60;;
24681;SDS011;12802;53.390;-2.328;2023-08-01T12:24:39;9.45;;;2.03;;
24681;SDS011;12802;53.390;-2.328;2023-08-01T12:27:06;7.18;;;1.75;;
24681;SDS011;12802;53.390;-2.328;2023-08-01T12:29:32;5.72;;;1.70;;
24681;SDS011;12802;53.390;-2.328;2023-08-01T12:31:59;5.03;;;1.63;;
24681;SDS011;12802;53.390;-2.328;2023-08-01T12:34:25;5.40;;;1.63;;
24681;SDS011;12802;53.390;-2.328;2023-08-01T12:36:51;7.82;;;1.25;;
24681;SDS011;12802;53.390;-2.328;2023-08-01T12:39:17;6.47;;;1.63;;
24681;SDS011;12802;53.390;-2.328;2023-08-01T12:41:43;6.00;;;1.38;;
24681;SDS011;12802;53.390;-2.328;2023-08-01T12:44:09;5.28;;;1.70;;
24681;SDS011;12802;53.390;-2.328;2023-08-01T12:46:35;4.72;;;1.58;;
24681;SDS011;12802;53.390;-2.328;2023-08-01T12:49:01;7.35;;;1.50;;
24681;SDS011;12802;53.390;-2.328;2023-08-01T12:51:28;6.72;;;1.77;;
24681;SDS011;12802;53.390;-2.328;2023-08-01T12:53:54;8.88;;;1.40;;
24681;SDS011;12802;53.390;-2.328;2023-08-01T12:56:20;7.05;;;1.48;;
24681;SDS011;12802;53.390;-2.328;2023-08-01T12:58:46;5.75;;;1.40;;
24681;SDS011;12802;53.390;-2.328;2023-08-01T13:01:12;3.22;;;0.90;;
24681;SDS011;12802;53.390;-2.328;2023-08-01T13:03:38;7.40;;;1.50;;
24681;SDS011;12802;53.390;-2.328;2023-08-01T13:06:05;4.25;;;1.20;;
24681;SDS011;12802;53.390;-2.328;2023-08-01T13:08:31;3.35;;;1.38;;
24681;SDS011;12802;53.390;-2.328;2023-08-01T13:10:57;6.05;;;1.20;;
24681;SDS011;12802;53.390;-2.328;2023-08-01T13:13:25;5.40;;;1.20;;
24681;SDS011;12802;53.390;-2.328;2023-08-01T13:15:51;2.15;;;0.85;;
24681;SDS011;12802;53.390;-2.328;2023-08-01T13:18:17;4.32;;;1.10;;
24681;SDS011;12802;53.390;-2.328;2023-08-01T13:20:43;5.57;;;1.20;;
24681;SDS011;12802;53.390;-2.328;2023-08-01T13:23:09;4.25;;;1.50;;
24681;SDS011;12802;53.390;-2.328;2023-08-01T13:25:35;7.28;;;1.38;;
24681;SDS011;12802;53.390;-2.328;2023-08-01T13:28:01;2.70;;;1.23;;
24681;SDS011;12802;53.390;-2.328;2023-08-01T13:30:28;3.78;;;1.08;;
24681;SDS011;12802;53.390;-2.328;2023-08-01T13:32:54;4.55;;;1.45;;
24681;SDS011;12802;53.390;-2.328;2023-08-01T13:35:20;5.70;;;1.38;;
24681;SDS011;12802;53.390;-2.328;2023-08-01T13:37:46;5.72;;;1.55;;
24681;SDS011;12802;53.390;-2.328;2023-08-01T13:40:12;3.13;;;1.00;;
24681;SDS011;12802;53.390;-2.328;2023-08-01T13:42:40;4.40;;;1.63;;
24681;SDS011;12802;53.390;-2.328;2023-08-01T13:45:06;4.45;;;1.40;;
24681;SDS011;12802;53.390;-2.328;2023-08-01T13:47:32;7.15;;;1.40;;
24681;SDS011;12802;53.390;-2.328;2023-08-01T13:49:59;5.38;;;1.17;;
24681;SDS011;12802;53.390;-2.328;2023-08-01T13:52:25;4.40;;;1.05;;
24681;SDS011;12802;53.390;-2.328;2023-08-01T13:54:51;7.97;;;1.20;;
24681;SDS011;12802;53.390;-2.328;2023-08-01T13:57:17;4.45;;;1.45;;
24681;SDS011;12802;53.390;-2.328;2023-08-01T13:59:43;4.38;;;1.10;;
24681;SDS011;12802;53.390;-2.328;2023-08-01T14:02:09;9.52;;;1.58;;
24681;SDS011;12802;53.390;-2.328;2023-08-01T14:04:35;9.35;;;1.67;;
24681;SDS011;12802;53.390;-2.328;2023-08-01T14:07:01;6.65;;;1.30;;
24681;SDS011;12802;53.390;-2.328;2023-08-01T14:09:28;4.45;;;1.38;;
24681;SDS011;12802;53.390;-2.328;2023-08-01T14:11:58;6.13;;;1.70;;
24681;SDS011;12802;53.390;-2.328;2023-08-01T14:14:24;10.25;;;1.75;;
24681;SDS011;12802;53.390;-2.328;2023-08-01T14:16:50;5.78;;;1.40;;
24681;SDS011;12802;53.390;-2.328;2023-08-01T14:19:16;10.85;;;1.80;;
24681;SDS011;12802;53.390;-2.328;2023-08-01T14:21:42;5.50;;;1.33;;
24681;SDS011;12802;53.390;-2.328;2023-08-01T14:24:09;6.40;;;1.67;;
24681;SDS011;12802;53.390;-2.328;2023-08-01T14:26:35;6.85;;;1.73;;
24681;SDS011;12802;53.390;-2.328;2023-08-01T14:29:01;6.28;;;1.58;;